createdAt,value
2023-08-23T00:02:13.163Z,8.10
2023-08-23T00:04:40.557Z,9.88
2023-08-23T00:07:07.925Z,9.60
2023-08-23T00:09:35.229Z,10.02
2023-08-23T00:12:02.508Z,9.52
2023-08-23T00:14:29.824Z,10.05
2023-08-23T00:16:57.176Z,10.38
2023-08-23T00:19:24.602Z,10.30
2023-08-23T00:21:51.892Z,11.27
2023-08-23T00:24:20.592Z,10.13
2023-08-23T00:26:47.917Z,9.90
2023-08-23T00:29:15.643Z,9.00
2023-08-23T00:31:43.006Z,11.65
2023-08-23T00:34:10.325Z,10.00
2023-08-23T00:36:37.873Z,9.73
2023-08-23T00:39:05.316Z,9.77
2023-08-23T00:41:32.869Z,9.25
2023-08-23T00:44:00.269Z,7.82
2023-08-23T00:46:27.848Z,8.07
2023-08-23T00:48:56.150Z,8.00
2023-08-23T00:51:23.533Z,8.82
2023-08-23T00:53:52.680Z,8.45
2023-08-23T00:56:20.466Z,8.02
2023-08-23T00:58:47.810Z,8.32
2023-08-23T01:01:15.297Z,8.55
2023-08-23T01:03:42.719Z,7.65
2023-08-23T01:06:23.889Z,8.07
2023-08-23T01:08:57.424Z,8.85
2023-08-23T01:11:27.430Z,9.00
2023-08-23T01:13:59.642Z,9.27
2023-08-23T01:16:27.476Z,10.88
2023-08-23T01:18:56.945Z,11.20
2023-08-23T01:21:29.256Z,11.45
2023-08-23T01:23:56.833Z,12.30
2023-08-23T01:26:25.301Z,13.65
2023-08-23T01:28:52.732Z,13.95
2023-08-23T01:31:23.274Z,13.98
2023-08-23T01:33:54.923Z,15.15
2023-08-23T01:36:26.944Z,14.63
2023-08-23T01:38:54.562Z,16.13
2023-08-23T01:41:22.209Z,15.38
2023-08-23T01:43:53.043Z,15.35
2023-08-23T01:49:14.061Z,17.25
2023-08-23T01:51:41.414Z,16.40
2023-08-23T01:54:08.985Z,17.67
2023-08-23T01:56:36.442Z,17.33
2023-08-23T01:59:04.044Z,16.83
2023-08-23T02:01:33.038Z,16.80
2023-08-23T02:04:00.572Z,18.92
2023-08-23T02:06:27.927Z,18.55
2023-08-23T02:08:55.277Z,20.17
2023-08-23T02:11:22.567Z,18.52
2023-08-23T02:13:50.647Z,20.77
2023-08-23T02:16:18.093Z,17.00
2023-08-23T02:18:45.387Z,19.33
2023-08-23T02:21:13.507Z,19.67
2023-08-23T02:23:42.771Z,17.27
2023-08-23T02:26:12.125Z,18.42
2023-08-23T02:28:39.421Z,18.90
2023-08-23T02:31:07.781Z,18.70
2023-08-23T02:33:35.107Z,18.48
2023-08-23T02:36:02.440Z,18.98
2023-08-23T02:38:29.789Z,19.52
2023-08-23T02:40:57.346Z,18.75
2023-08-23T02:45:53.313Z,18.60
2023-08-23T02:48:20.739Z,18.10
2023-08-23T02:50:48.028Z,17.05
2023-08-23T02:53:15.369Z,16.52
2023-08-23T02:55:42.720Z,19.00
2023-08-23T02:58:10.018Z,17.80
2023-08-23T03:00:37.405Z,15.70
2023-08-23T03:03:04.841Z,17.42
2023-08-23T03:05:32.645Z,18.20
2023-08-23T03:08:00.080Z,18.10
2023-08-23T03:10:27.400Z,19.48
2023-08-23T03:12:55.097Z,17.17
2023-08-23T03:15:22.599Z,20.52
2023-08-23T03:17:50.106Z,18.23
2023-08-23T03:20:17.947Z,19.17
2023-08-23T03:22:45.662Z,17.40
2023-08-23T03:25:13.893Z,19.15
2023-08-23T03:27:41.588Z,20.52
2023-08-23T03:30:09.350Z,19.10
2023-08-23T03:32:37.144Z,18.10
2023-08-23T03:35:04.700Z,19.10
2023-08-23T03:37:31.995Z,20.23
2023-08-23T03:39:59.287Z,18.50
2023-08-23T03:42:27.450Z,20.17
2023-08-23T03:44:55.240Z,19.60
2023-08-23T03:47:22.580Z,19.02
2023-08-23T03:49:50.237Z,19.65
2023-08-23T03:52:17.801Z,19.63
2023-08-23T03:54:45.165Z,19.77
2023-08-23T03:57:12.527Z,22.00
2023-08-23T03:59:39.775Z,19.85
2023-08-23T04:02:07.258Z,19.80
2023-08-23T04:04:34.827Z,20.08
2023-08-23T04:07:02.390Z,20.80
2023-08-23T04:09:29.665Z,21.02
2023-08-23T04:11:57.043Z,21.52
2023-08-23T04:14:24.325Z,21.63
2023-08-23T04:16:51.671Z,22.45
2023-08-23T04:19:18.981Z,23.83
2023-08-23T04:21:48.006Z,23.15
2023-08-23T04:26:43.641Z,25.25
2023-08-23T04:29:14.127Z,23.70
2023-08-23T04:31:44.740Z,23.40
2023-08-23T04:34:23.474Z,25.98
2023-08-23T04:36:54.022Z,24.67
2023-08-23T04:39:21.696Z,25.10
2023-08-23T04:41:49.092Z,27.27
2023-08-23T04:44:16.370Z,25.38
2023-08-23T04:46:46.558Z,26.35
2023-08-23T04:49:24.343Z,25.50
2023-08-23T04:51:51.693Z,26.45
2023-08-23T04:54:19.157Z,26.80
2023-08-23T04:56:46.499Z,25.25
2023-08-23T04:59:14.938Z,25.08
2023-08-23T05:01:42.349Z,28.67
2023-08-23T05:04:09.737Z,26.23
2023-08-23T05:06:38.685Z,27.53
2023-08-23T05:09:16.831Z,26.50
2023-08-23T05:11:45.869Z,28.92
2023-08-23T05:14:15.081Z,27.20
2023-08-23T05:16:44.777Z,26.67
2023-08-23T05:19:18.185Z,25.02
2023-08-23T05:21:49.292Z,26.95
2023-08-23T05:24:16.923Z,28.08
2023-08-23T05:26:44.252Z,29.85
2023-08-23T05:29:19.123Z,29.52
2023-08-23T05:31:48.383Z,27.80
2023-08-23T05:37:07.323Z,27.77
2023-08-23T05:39:40.325Z,29.33
2023-08-23T05:42:08.143Z,28.48
2023-08-23T05:44:35.554Z,26.55
2023-08-23T05:47:03.592Z,30.92
2023-08-23T05:49:31.054Z,27.97
2023-08-23T05:52:01.612Z,29.05
2023-08-23T05:54:29.818Z,30.90
2023-08-23T05:57:00.648Z,28.07
2023-08-23T05:59:28.472Z,27.52
2023-08-23T06:01:55.893Z,31.40
2023-08-23T06:04:23.295Z,30.77
2023-08-23T06:06:50.605Z,32.03
2023-08-23T06:09:19.383Z,29.40
2023-08-23T06:11:46.685Z,31.05
2023-08-23T06:14:31.981Z,29.17
2023-08-23T06:17:06.467Z,28.40
2023-08-23T06:20:19.726Z,30.40
2023-08-23T06:23:08.286Z,30.08
2023-08-23T06:28:34.814Z,31.02
2023-08-23T06:31:03.922Z,28.13
2023-08-23T06:36:53.067Z,28.80
2023-08-23T06:39:32.712Z,28.35
2023-08-23T06:42:12.950Z,30.67
2023-08-23T06:44:43.515Z,29.58
2023-08-23T06:47:13.631Z,28.25
2023-08-23T06:49:43.626Z,30.02
2023-08-23T06:52:15.224Z,26.50
2023-08-23T06:54:44.843Z,28.92
2023-08-23T06:57:14.352Z,26.90
2023-08-23T06:59:43.131Z,28.98
2023-08-23T07:02:18.541Z,29.00
2023-08-23T07:04:50.612Z,26.05
2023-08-23T07:07:19.942Z,27.10
2023-08-23T07:09:49.496Z,31.05
2023-08-23T07:12:17.004Z,31.48
2023-08-23T07:14:44.375Z,28.27
2023-08-23T07:17:11.785Z,28.67
2023-08-23T07:19:39.140Z,30.15
2023-08-23T07:22:06.630Z,30.00
2023-08-23T07:24:35.690Z,27.48
2023-08-23T07:27:05.987Z,29.70
2023-08-23T07:29:38.826Z,31.77
2023-08-23T07:32:09.538Z,30.42
2023-08-23T07:34:37.433Z,32.40
2023-08-23T07:37:04.723Z,31.17
2023-08-23T07:39:34.089Z,33.50
2023-08-23T07:44:47.454Z,34.13
2023-08-23T07:47:17.554Z,33.20
2023-08-23T07:49:49.929Z,32.53
2023-08-23T07:52:18.615Z,30.42
2023-08-23T07:54:45.885Z,30.95
2023-08-23T07:57:13.688Z,31.20
2023-08-23T07:59:41.068Z,30.08
2023-08-23T08:02:08.435Z,28.83
2023-08-23T08:04:35.737Z,32.30
2023-08-23T08:07:03.046Z,31.45
2023-08-23T08:09:31.018Z,34.10
2023-08-23T08:11:58.322Z,32.07
2023-08-23T08:14:25.638Z,31.48
2023-08-23T08:16:53.452Z,32.80
2023-08-23T08:19:33.895Z,31.15
2023-08-23T08:22:02.632Z,33.22
2023-08-23T08:24:39.406Z,34.47
2023-08-23T08:27:19.305Z,35.83
2023-08-23T08:29:48.393Z,36.17
2023-08-23T08:32:25.832Z,36.38
2023-08-23T08:35:19.072Z,37.40
2023-08-23T08:38:12.634Z,43.15
2023-08-23T08:40:40.612Z,41.20
2023-08-23T08:43:10.951Z,40.45
2023-08-23T08:45:41.684Z,39.45
2023-08-23T08:51:28.170Z,38.15
2023-08-23T08:53:56.444Z,39.83
2023-08-23T08:56:27.061Z,40.92
2023-08-23T08:59:03.819Z,40.55
2023-08-23T09:01:36.916Z,40.78
2023-08-23T09:04:10.791Z,37.67
2023-08-23T09:06:42.770Z,38.70
2023-08-23T09:12:08.989Z,39.08
2023-08-23T09:14:46.888Z,40.88
2023-08-23T09:17:25.097Z,41.28
2023-08-23T09:19:57.424Z,42.38
2023-08-23T09:22:30.746Z,38.28
2023-08-23T09:25:01.088Z,36.45
2023-08-23T09:30:38.759Z,35.63
2023-08-23T09:33:13.424Z,33.40
2023-08-23T09:35:48.625Z,34.95
2023-08-23T09:38:23.220Z,35.50
2023-08-23T09:40:50.895Z,37.20
2023-08-23T09:43:18.359Z,37.47
2023-08-23T09:45:47.289Z,37.30
2023-08-23T09:48:19.942Z,34.88
2023-08-23T09:50:48.622Z,32.33
2023-08-23T09:53:27.932Z,32.50
2023-08-23T09:55:55.605Z,31.08
2023-08-23T09:58:23.087Z,30.73
2023-08-23T10:00:52.249Z,30.92
2023-08-23T10:03:22.788Z,30.73
2023-08-23T10:05:54.110Z,32.22
2023-08-23T10:08:21.679Z,32.80
2023-08-23T10:10:51.398Z,29.55
2023-08-23T10:13:19.323Z,29.17
2023-08-23T10:15:46.664Z,30.40
2023-08-23T10:18:14.984Z,28.33
2023-08-23T10:20:42.673Z,23.65
2023-08-23T10:23:14.265Z,25.67
2023-08-23T10:25:43.315Z,25.92
2023-08-23T10:28:11.846Z,25.60
2023-08-23T10:33:10.223Z,21.55
2023-08-23T10:35:37.991Z,23.95
2023-08-23T10:38:09.265Z,21.63
2023-08-23T10:40:40.074Z,21.40
2023-08-23T10:43:13.389Z,16.80
2023-08-23T10:45:51.546Z,15.95
2023-08-23T10:48:22.933Z,14.52
2023-08-23T10:50:50.888Z,11.93
2023-08-23T10:53:18.468Z,16.10
2023-08-23T10:55:46.461Z,13.63
2023-08-23T10:58:17.233Z,12.40
2023-08-23T11:00:46.031Z,12.23
2023-08-23T11:03:14.224Z,11.57
2023-08-23T11:05:41.587Z,11.73
2023-08-23T11:08:09.767Z,11.60
2023-08-23T11:10:38.663Z,14.00
2023-08-23T11:13:06.553Z,12.93
2023-08-23T11:15:34.849Z,13.40
2023-08-23T11:18:02.774Z,13.77
2023-08-23T11:20:30.190Z,12.60
2023-08-23T11:22:57.487Z,13.00
2023-08-23T11:25:25.501Z,12.45
2023-08-23T11:27:53.606Z,11.48
2023-08-23T11:30:23.940Z,11.52
2023-08-23T11:32:51.281Z,9.60
2023-08-23T11:35:20.934Z,10.68
2023-08-23T11:37:51.053Z,8.13
2023-08-23T11:42:47.141Z,4.78
2023-08-23T11:45:14.438Z,4.28
2023-08-23T11:47:42.558Z,3.80
2023-08-23T11:50:10.046Z,3.05
2023-08-23T11:52:37.351Z,2.58
2023-08-23T11:55:05.141Z,1.90
2023-08-23T11:57:33.736Z,2.00
2023-08-23T12:00:01.073Z,1.65
2023-08-23T12:02:28.422Z,1.85
2023-08-23T12:04:56.014Z,1.92
2023-08-23T12:07:23.454Z,1.67
2023-08-23T12:10:21.041Z,1.80
2023-08-23T12:12:48.315Z,1.60
2023-08-23T12:15:15.657Z,1.88
2023-08-23T12:17:50.384Z,1.52
2023-08-23T12:20:17.957Z,1.50
2023-08-23T12:22:51.416Z,1.40
2023-08-23T12:25:23.803Z,1.60
2023-08-23T12:27:53.458Z,1.40
2023-08-23T12:30:29.435Z,1.70
2023-08-23T12:32:59.657Z,1.25
2023-08-23T12:35:29.404Z,1.60
2023-08-23T12:37:59.332Z,1.50
2023-08-23T12:40:29.478Z,2.53
2023-08-23T12:43:00.570Z,1.20
2023-08-23T12:45:32.637Z,1.52
2023-08-23T12:48:07.921Z,1.15
2023-08-23T12:50:37.215Z,1.20
2023-08-23T12:53:19.882Z,1.33
2023-08-23T12:55:53.236Z,1.42
2023-08-23T12:58:39.926Z,1.35
2023-08-23T13:01:08.292Z,1.60
2023-08-23T13:03:35.769Z,1.80
2023-08-23T13:06:06.910Z,1.30
2023-08-23T13:08:55.156Z,1.90
2023-08-23T13:11:33.331Z,1.50
2023-08-23T13:14:02.853Z,1.63
2023-08-23T13:16:31.305Z,1.30
2023-08-23T13:19:34.144Z,1.40
2023-08-23T13:22:07.688Z,1.35
2023-08-23T13:24:43.431Z,1.65
2023-08-23T13:27:23.982Z,1.42
2023-08-23T13:35:14.250Z,1.25
2023-08-23T13:38:13.981Z,1.65
2023-08-23T13:41:50.906Z,1.65
2023-08-23T13:44:22.867Z,1.55
2023-08-23T13:47:01.714Z,1.33
2023-08-23T13:49:30.496Z,1.45
2023-08-23T13:54:31.228Z,1.30
2023-08-23T13:57:05.689Z,1.52
2023-08-23T13:59:34.693Z,1.50
2023-08-23T14:02:05.927Z,1.60
2023-08-23T14:04:38.389Z,2.42
2023-08-23T14:07:06.651Z,1.52
2023-08-23T14:09:34.031Z,1.20
2023-08-23T14:12:11.700Z,1.73
2023-08-23T14:17:07.454Z,1.50
2023-08-23T14:19:45.625Z,1.20
2023-08-23T14:24:40.721Z,1.50
2023-08-23T14:27:12.726Z,1.55
2023-08-23T14:29:41.029Z,1.33
2023-08-23T14:32:09.921Z,1.50
2023-08-23T14:34:39.497Z,1.30
2023-08-23T14:37:09.135Z,1.50
2023-08-23T14:39:39.080Z,1.50
2023-08-23T14:42:08.881Z,1.42
2023-08-23T14:44:45.196Z,1.52
2023-08-23T14:47:13.575Z,1.40
2023-08-23T14:49:42.810Z,1.33
2023-08-23T14:52:22.149Z,1.63
2023-08-23T14:54:49.874Z,1.50
2023-08-23T14:57:17.381Z,1.60
2023-08-23T14:59:48.014Z,1.63
2023-08-23T15:02:16.017Z,1.70
2023-08-23T15:04:46.453Z,1.50
2023-08-23T15:07:29.508Z,1.40
2023-08-23T15:09:58.896Z,1.92
2023-08-23T15:12:28.357Z,1.70
2023-08-23T15:14:57.885Z,1.50
2023-08-23T15:17:33.844Z,1.15
2023-08-23T15:20:05.882Z,1.40
2023-08-23T15:22:45.056Z,1.63
2023-08-23T15:25:17.053Z,1.55
2023-08-23T15:27:51.486Z,1.30
2023-08-23T15:30:21.669Z,1.33
2023-08-23T15:32:56.931Z,1.50
2023-08-23T15:35:37.123Z,1.25
2023-08-23T15:38:46.251Z,1.33
2023-08-23T15:42:23.018Z,1.30
2023-08-23T15:44:58.524Z,1.10
2023-08-23T15:50:52.187Z,1.30
2023-08-23T15:53:20.451Z,1.60
2023-08-23T15:55:56.885Z,1.02
2023-08-23T15:58:29.253Z,1.25
2023-08-23T16:00:59.605Z,1.50
2023-08-23T16:03:30.332Z,1.40
2023-08-23T16:05:58.785Z,1.50
2023-08-23T16:08:28.739Z,1.25
2023-08-23T16:11:00.140Z,1.05
2023-08-23T16:13:29.814Z,1.40
2023-08-23T16:15:57.535Z,1.40
2023-08-23T16:18:24.862Z,1.55
2023-08-23T16:20:52.272Z,1.60
2023-08-23T16:23:19.629Z,1.30
2023-08-23T16:25:46.981Z,1.40
2023-08-23T16:28:14.317Z,1.35
2023-08-23T16:30:41.728Z,1.38
2023-08-23T16:33:09.212Z,1.27
2023-08-23T16:35:40.097Z,1.00
2023-08-23T16:38:12.272Z,1.17
2023-08-23T16:40:40.014Z,1.10
2023-08-23T16:43:09.890Z,1.10
2023-08-23T16:45:37.474Z,1.38
2023-08-23T16:48:05.184Z,1.40
2023-08-23T16:50:32.542Z,1.30
2023-08-23T16:52:59.900Z,1.67
2023-08-23T16:55:29.617Z,1.25
2023-08-23T16:57:59.308Z,1.20
2023-08-23T17:00:28.714Z,1.35
2023-08-23T17:02:56.624Z,1.65
2023-08-23T17:05:24.347Z,1.48
2023-08-23T17:07:51.917Z,2.03
2023-08-23T17:10:20.714Z,2.28
2023-08-23T17:15:15.679Z,1.20
2023-08-23T17:17:43.177Z,1.13
2023-08-23T17:20:10.829Z,1.02
2023-08-23T17:22:38.198Z,1.15
2023-08-23T17:25:05.716Z,1.00
2023-08-23T17:27:33.116Z,0.90
2023-08-23T17:30:00.449Z,1.20
2023-08-23T17:32:28.234Z,1.63
2023-08-23T17:34:55.834Z,1.30
2023-08-23T17:37:23.146Z,1.27
2023-08-23T17:39:50.502Z,1.38
2023-08-23T17:42:17.840Z,1.20
2023-08-23T17:44:45.233Z,1.40
2023-08-23T17:47:12.540Z,1.30
2023-08-23T17:49:40.057Z,1.98
2023-08-23T17:52:07.512Z,1.55
2023-08-23T17:54:35.312Z,2.13
2023-08-23T17:57:02.670Z,1.55
2023-08-23T17:59:31.155Z,28.25
2023-08-23T18:01:58.609Z,2.58
2023-08-23T18:04:27.538Z,2.08
2023-08-23T18:06:55.107Z,2.70
2023-08-23T18:09:27.215Z,1.40
2023-08-23T18:11:57.550Z,1.40
2023-08-23T18:14:30.224Z,1.70
2023-08-23T18:17:03.156Z,1.50
2023-08-23T18:19:44.904Z,1.70
2023-08-23T18:22:34.421Z,1.80
2023-08-23T18:25:05.210Z,1.45
2023-08-23T18:27:43.215Z,1.60
2023-08-23T18:30:13.361Z,1.67
2023-08-23T18:32:43.988Z,1.95
2023-08-23T18:35:17.045Z,1.83
2023-08-23T18:37:47.083Z,1.38
2023-08-23T18:40:16.853Z,1.63
2023-08-23T18:42:49.761Z,1.55
2023-08-23T18:45:21.881Z,1.38
2023-08-23T18:47:53.882Z,1.77
2023-08-23T18:50:42.114Z,1.73
2023-08-23T18:53:13.653Z,1.63
2023-08-23T18:55:47.791Z,1.50
2023-08-23T18:58:29.116Z,1.80
2023-08-23T19:00:59.529Z,2.20
2023-08-23T19:03:28.778Z,1.65
2023-08-23T19:05:56.271Z,2.05
2023-08-23T19:08:23.803Z,2.25
2023-08-23T19:10:51.209Z,3.08
2023-08-23T19:13:19.031Z,2.22
2023-08-23T19:15:47.068Z,2.20
2023-08-23T19:18:22.182Z,1.92
2023-08-23T19:20:51.904Z,2.30
2023-08-23T19:23:19.408Z,1.83
2023-08-23T19:25:51.605Z,2.45
2023-08-23T19:28:20.451Z,2.13
2023-08-23T19:30:51.929Z,2.00
2023-08-23T19:33:19.518Z,2.15
2023-08-23T19:35:49.605Z,2.15
2023-08-23T19:38:17.139Z,1.90
2023-08-23T19:40:44.627Z,2.47
2023-08-23T19:43:12.052Z,2.10
2023-08-23T19:45:39.528Z,2.60
2023-08-23T19:48:25.449Z,1.65
2023-08-23T19:50:54.636Z,2.55
2023-08-23T19:53:21.961Z,1.90
2023-08-23T19:55:49.495Z,2.00
2023-08-23T19:58:20.226Z,2.10
2023-08-23T20:00:47.564Z,2.53
2023-08-23T20:03:15.007Z,1.90
2023-08-23T20:05:46.024Z,2.17
2023-08-23T20:08:13.415Z,3.97
2023-08-23T20:10:40.904Z,5.38
2023-08-23T20:13:08.266Z,3.38
2023-08-23T20:15:35.850Z,2.95
2023-08-23T20:18:03.535Z,3.33
2023-08-23T20:20:30.956Z,4.95
2023-08-23T20:22:58.410Z,27.55
2023-08-23T20:25:26.905Z,11.23
2023-08-23T20:27:54.282Z,7.47
2023-08-23T20:30:21.651Z,7.40
2023-08-23T20:32:49.651Z,6.53
2023-08-23T20:35:17.026Z,4.13
2023-08-23T20:37:44.689Z,5.13
2023-08-23T20:40:15.055Z,3.17
2023-08-23T20:42:42.595Z,3.45
2023-08-23T20:45:10.306Z,3.45
2023-08-23T20:47:38.035Z,3.05
2023-08-23T20:50:06.502Z,3.03
2023-08-23T20:52:34.246Z,3.20
2023-08-23T20:55:01.703Z,3.00
2023-08-23T20:57:30.508Z,2.85
2023-08-23T20:59:57.983Z,3.40
2023-08-23T21:02:25.572Z,2.40
2023-08-23T21:04:52.927Z,3.00
2023-08-23T21:07:20.306Z,3.78
2023-08-23T21:09:47.781Z,3.15
2023-08-23T21:12:15.306Z,3.28
2023-08-23T21:14:43.219Z,2.63
2023-08-23T21:17:10.845Z,3.20
2023-08-23T21:19:38.223Z,3.20
2023-08-23T21:22:05.713Z,2.92
2023-08-23T21:24:34.477Z,3.33
2023-08-23T21:27:04.881Z,2.60
2023-08-23T21:29:32.391Z,2.92
2023-08-23T21:31:59.868Z,2.35
2023-08-23T21:34:27.571Z,3.53
2023-08-23T21:36:55.243Z,3.95
2023-08-23T21:39:22.621Z,3.92
2023-08-23T21:41:49.964Z,3.75
2023-08-23T21:44:17.394Z,3.92
2023-08-23T21:46:45.827Z,4.18
2023-08-23T21:49:13.291Z,4.22
2023-08-23T21:51:40.685Z,5.07
2023-08-23T21:54:09.412Z,4.90
2023-08-23T21:56:36.852Z,4.60
2023-08-23T21:59:05.487Z,4.82
2023-08-23T22:01:33.003Z,5.00
2023-08-23T22:04:00.908Z,4.85
2023-08-23T22:06:30.544Z,4.30
2023-08-23T22:08:58.151Z,3.90
2023-08-23T22:11:25.573Z,4.53
2023-08-23T22:13:53.018Z,4.70
2023-08-23T22:16:21.262Z,4.05
2023-08-23T22:18:50.159Z,3.90
2023-08-23T22:21:17.539Z,5.10
2023-08-23T22:23:44.900Z,3.88
2023-08-23T22:26:12.384Z,4.10
2023-08-23T22:28:40.449Z,4.85
2023-08-23T22:31:09.334Z,4.60
2023-08-23T22:36:04.576Z,4.47
2023-08-23T22:38:32.073Z,4.88
2023-08-23T22:40:59.536Z,4.03
2023-08-23T22:43:27.102Z,4.32
2023-08-23T22:45:55.259Z,4.47
2023-08-23T22:48:23.443Z,5.18
2023-08-23T22:50:51.772Z,4.73
2023-08-23T22:53:19.703Z,4.40
2023-08-23T22:55:47.289Z,4.47
2023-08-23T22:58:14.714Z,4.75
2023-08-23T23:00:43.436Z,5.32
2023-08-23T23:03:10.978Z,5.40
2023-08-23T23:05:40.341Z,5.32
2023-08-23T23:08:07.945Z,4.93
2023-08-23T23:10:35.361Z,4.85
2023-08-23T23:13:03.959Z,5.25
2023-08-23T23:15:31.293Z,6.07
2023-08-23T23:17:58.710Z,4.97
2023-08-23T23:20:26.136Z,5.45
2023-08-23T23:22:53.498Z,6.55
2023-08-23T23:25:20.961Z,6.53
2023-08-23T23:27:48.695Z,5.70
2023-08-23T23:30:16.893Z,6.13
2023-08-23T23:32:44.339Z,4.97
2023-08-23T23:35:11.837Z,6.18
2023-08-23T23:37:39.281Z,6.20
2023-08-23T23:40:10.606Z,5.35
2023-08-23T23:42:38.096Z,4.85
2023-08-23T23:45:06.099Z,4.82
2023-08-23T23:47:33.487Z,4.75
2023-08-23T23:50:01.022Z,4.88
2023-08-23T23:52:28.451Z,4.72
2023-08-23T23:54:55.806Z,4.65
2023-08-23T23:57:23.347Z,5.22
2023-08-23T23:59:50.988Z,4.47
